sensor_id;sensor_type;location;lat;lon;timestamp;pressure;altitude;pressure_sealevel;temperature;humidity
73624;BME280;61921;53.226;-1.296;2023-08-06T00:01:47;100147.44;;;11.34;100.00
73624;BME280;61921;53.226;-1.296;2023-08-06T00:04:13;100149.23;;;11.36;100.00
73624;BME280;61921;53.226;-1.296;2023-08-06T00:06:38;100151.81;;;11.42;100.00
73624;BME280;61921;53.226;-1.296;2023-08-06T00:09:04;100149.10;;;11.34;100.00
73624;BME280;61921;53.226;-1.296;2023-08-06T00:11:28;100154.40;;;11.46;100.00
73624;BME280;61921;53.226;-1.296;2023-08-06T00:13:54;100150.45;;;11.33;100.00
73624;BME280;61921;53.226;-1.296;2023-08-06T00:16:19;100156.77;;;11.24;100.00
73624;BME280;61921;53.226;-1.296;2023-08-06T00:18:45;100162.09;;;11.29;100.00
73624;BME280;61921;53.226;-1.296;2023-08-06T00:21:10;100162.80;;;11.32;100.00
73624;BME280;61921;53.226;-1.296;2023-08-06T00:23:35;100164.06;;;11.26;100.00
73624;BME280;61921;53.226;-1.296;2023-08-06T00:26:01;100160.57;;;11.22;100.00
73624;BME280;61921;53.226;-1.296;2023-08-06T00:28:26;100161.99;;;11.16;100.00
73624;BME280;61921;53.226;-1.296;2023-08-06T00:30:53;100163.10;;;11.16;100.00
73624;BME280;61921;53.226;-1.296;2023-08-06T00:33:17;100163.86;;;11.18;100.00
73624;BME280;61921;53.226;-1.296;2023-08-06T00:35:42;100165.27;;;11.13;100.00
73624;BME280;61921;53.226;-1.296;2023-08-06T00:38:08;100166.83;;;11.04;100.00
73624;BME280;61921;53.226;-1.296;2023-08-06T00:40:33;100166.81;;;11.08;100.00
73624;BME280;61921;53.226;-1.296;2023-08-06T00:42:59;100169.46;;;11.07;100.00
73624;BME280;61921;53.226;-1.296;2023-08-06T00:45:25;100172.25;;;11.03;100.00
73624;BME280;61921;53.226;-1.296;2023-08-06T00:47:50;100172.89;;;11.02;100.00
73624;BME280;61921;53.226;-1.296;2023-08-06T00:50:14;100174.37;;;10.99;100.00
73624;BME280;61921;53.226;-1.296;2023-08-06T00:52:41;100176.37;;;10.99;100.00
73624;BME280;61921;53.226;-1.296;2023-08-06T00:55:06;100177.75;;;11.05;100.00
73624;BME280;61921;53.226;-1.296;2023-08-06T00:57:30;100181.52;;;10.97;100.00
73624;BME280;61921;53.226;-1.296;2023-08-06T00:59:57;100181.90;;;10.94;100.00
73624;BME280;61921;53.226;-1.296;2023-08-06T01:02:21;100185.61;;;10.95;100.00
73624;BME280;61921;53.226;-1.296;2023-08-06T01:04:47;100186.49;;;11.00;100.00
73624;BME280;61921;53.226;-1.296;2023-08-06T01:07:19;100187.33;;;11.06;100.00
73624;BME280;61921;53.226;-1.296;2023-08-06T01:09:45;100187.63;;;10.97;100.00
73624;BME280;61921;53.226;-1.296;2023-08-06T01:12:11;100188.93;;;10.94;100.00
73624;BME280;61921;53.226;-1.296;2023-08-06T01:14:33;100192.47;;;11.03;100.00
73624;BME280;61921;53.226;-1.296;2023-08-06T01:16:54;100191.30;;;10.96;100.00
73624;BME280;61921;53.226;-1.296;2023-08-06T01:19:20;100193.06;;;10.96;100.00
73624;BME280;61921;53.226;-1.296;2023-08-06T01:21:45;100195.45;;;10.96;100.00
73624;BME280;61921;53.226;-1.296;2023-08-06T01:24:10;100198.05;;;10.94;100.00
73624;BME280;61921;53.226;-1.296;2023-08-06T01:26:39;100197.03;;;10.90;100.00
73624;BME280;61921;53.226;-1.296;2023-08-06T01:29:07;100202.92;;;10.84;100.00
73624;BME280;61921;53.226;-1.296;2023-08-06T01:31:28;100203.93;;;10.86;100.00
73624;BME280;61921;53.226;-1.296;2023-08-06T01:33:52;100209.29;;;10.95;100.00
73624;BME280;61921;53.226;-1.296;2023-08-06T01:36:19;100213.34;;;10.97;100.00
73624;BME280;61921;53.226;-1.296;2023-08-06T01:38:43;100218.86;;;10.94;100.00
73624;BME280;61921;53.226;-1.296;2023-08-06T01:41:07;100223.81;;;10.97;100.00
73624;BME280;61921;53.226;-1.296;2023-08-06T01:43:33;100224.12;;;10.97;100.00
73624;BME280;61921;53.226;-1.296;2023-08-06T01:45:58;100226.37;;;10.87;100.00
73624;BME280;61921;53.226;-1.296;2023-08-06T01:48:24;100219.65;;;10.94;100.00
73624;BME280;61921;53.226;-1.296;2023-08-06T01:50:50;100222.30;;;10.90;100.00
73624;BME280;61921;53.226;-1.296;2023-08-06T01:53:14;100223.91;;;10.85;100.00
73624;BME280;61921;53.226;-1.296;2023-08-06T01:55:40;100226.74;;;10.86;100.00
73624;BME280;61921;53.226;-1.296;2023-08-06T01:58:05;100228.27;;;11.02;100.00
73624;BME280;61921;53.226;-1.296;2023-08-06T02:00:31;100231.96;;;10.99;100.00
73624;BME280;61921;53.226;-1.296;2023-08-06T02:02:56;100233.61;;;11.02;100.00
73624;BME280;61921;53.226;-1.296;2023-08-06T02:05:22;100234.47;;;10.93;100.00
73624;BME280;61921;53.226;-1.296;2023-08-06T02:07:47;100234.45;;;11.06;100.00
73624;BME280;61921;53.226;-1.296;2023-08-06T02:10:13;100236.66;;;11.18;100.00
73624;BME280;61921;53.226;-1.296;2023-08-06T02:12:37;100243.36;;;10.99;100.00
73624;BME280;61921;53.226;-1.296;2023-08-06T02:15:04;100239.74;;;11.06;100.00
73624;BME280;61921;53.226;-1.296;2023-08-06T02:17:28;100243.06;;;10.97;100.00
73624;BME280;61921;53.226;-1.296;2023-08-06T02:19:53;100235.99;;;11.01;100.00
73624;BME280;61921;53.226;-1.296;2023-08-06T02:22:20;100237.40;;;11.06;100.00
73624;BME280;61921;53.226;-1.296;2023-08-06T02:24:44;100238.17;;;10.89;100.00
73624;BME280;61921;53.226;-1.296;2023-08-06T02:27:10;100234.64;;;10.89;100.00
73624;BME280;61921;53.226;-1.296;2023-08-06T02:29:35;100231.31;;;10.95;100.00
73624;BME280;61921;53.226;-1.296;2023-08-06T02:32:01;100232.48;;;10.83;100.00
73624;BME280;61921;53.226;-1.296;2023-08-06T02:34:26;100234.03;;;10.81;100.00
73624;BME280;61921;53.226;-1.296;2023-08-06T02:36:51;100234.29;;;10.92;100.00
73624;BME280;61921;53.226;-1.296;2023-08-06T02:39:17;100234.77;;;10.89;100.00
73624;BME280;61921;53.226;-1.296;2023-08-06T02:41:43;100232.56;;;10.81;100.00
73624;BME280;61921;53.226;-1.296;2023-08-06T02:44:08;100236.73;;;10.78;100.00
73624;BME280;61921;53.226;-1.296;2023-08-06T02:46:33;100237.47;;;10.90;100.00
73624;BME280;61921;53.226;-1.296;2023-08-06T02:48:59;100236.91;;;10.94;100.00
73624;BME280;61921;53.226;-1.296;2023-08-06T02:51:24;100239.32;;;10.86;100.00
73624;BME280;61921;53.226;-1.296;2023-08-06T02:53:49;100240.60;;;10.93;100.00
73624;BME280;61921;53.226;-1.296;2023-08-06T02:56:15;100238.63;;;11.04;100.00
73624;BME280;61921;53.226;-1.296;2023-08-06T02:58:40;100240.15;;;11.11;100.00
73624;BME280;61921;53.226;-1.296;2023-08-06T03:01:06;100239.54;;;11.02;100.00
73624;BME280;61921;53.226;-1.296;2023-08-06T03:03:31;100236.50;;;11.18;100.00
73624;BME280;61921;53.226;-1.296;2023-08-06T03:05:56;100235.57;;;11.07;100.00
73624;BME280;61921;53.226;-1.296;2023-08-06T03:08:21;100239.56;;;10.98;100.00
73624;BME280;61921;53.226;-1.296;2023-08-06T03:10:47;100236.99;;;10.99;100.00
73624;BME280;61921;53.226;-1.296;2023-08-06T03:13:12;100239.54;;;10.99;100.00
73624;BME280;61921;53.226;-1.296;2023-08-06T03:15:38;100238.46;;;10.87;100.00
73624;BME280;61921;53.226;-1.296;2023-08-06T03:18:03;100239.40;;;10.95;100.00
73624;BME280;61921;53.226;-1.296;2023-08-06T03:20:28;100238.27;;;11.08;100.00
73624;BME280;61921;53.226;-1.296;2023-08-06T03:22:53;100238.58;;;10.93;100.00
73624;BME280;61921;53.226;-1.296;2023-08-06T03:25:19;100236.53;;;11.05;100.00
73624;BME280;61921;53.226;-1.296;2023-08-06T03:27:45;100238.40;;;11.00;100.00
73624;BME280;61921;53.226;-1.296;2023-08-06T03:30:10;100241.22;;;10.96;100.00
73624;BME280;61921;53.226;-1.296;2023-08-06T03:32:36;100245.41;;;11.02;100.00
73624;BME280;61921;53.226;-1.296;2023-08-06T03:35:00;100246.83;;;11.16;100.00
73624;BME280;61921;53.226;-1.296;2023-08-06T03:37:26;100250.34;;;11.20;100.00
73624;BME280;61921;53.226;-1.296;2023-08-06T03:39:51;100251.03;;;11.27;100.00
73624;BME280;61921;53.226;-1.296;2023-08-06T03:42:17;100253.29;;;11.20;100.00
73624;BME280;61921;53.226;-1.296;2023-08-06T03:44:42;100255.98;;;11.20;100.00
73624;BME280;61921;53.226;-1.296;2023-08-06T03:47:07;100254.85;;;11.18;100.00
73624;BME280;61921;53.226;-1.296;2023-08-06T03:49:33;100252.79;;;11.11;100.00
73624;BME280;61921;53.226;-1.296;2023-08-06T03:51:58;100254.97;;;11.13;100.00
73624;BME280;61921;53.226;-1.296;2023-08-06T03:54:24;100259.52;;;11.06;100.00
73624;BME280;61921;53.226;-1.296;2023-08-06T03:56:49;100258.51;;;11.08;100.00
73624;BME280;61921;53.226;-1.296;2023-08-06T03:59:14;100257.84;;;11.02;100.00
73624;BME280;61921;53.226;-1.296;2023-08-06T04:01:40;100260.00;;;11.03;100.00
73624;BME280;61921;53.226;-1.296;2023-08-06T04:04:05;100258.56;;;11.00;100.00
73624;BME280;61921;53.226;-1.296;2023-08-06T04:06:31;100262.43;;;10.96;100.00
73624;BME280;61921;53.226;-1.296;2023-08-06T04:08:56;100263.89;;;10.87;100.00
73624;BME280;61921;53.226;-1.296;2023-08-06T04:11:22;100263.56;;;10.82;100.00
73624;BME280;61921;53.226;-1.296;2023-08-06T04:13:47;100266.19;;;10.77;100.00
73624;BME280;61921;53.226;-1.296;2023-08-06T04:16:12;100268.42;;;10.71;100.00
73624;BME280;61921;53.226;-1.296;2023-08-06T04:18:38;100270.76;;;10.73;100.00
73624;BME280;61921;53.226;-1.296;2023-08-06T04:21:03;100276.89;;;10.66;100.00
73624;BME280;61921;53.226;-1.296;2023-08-06T04:23:28;100280.23;;;10.71;100.00
73624;BME280;61921;53.226;-1.296;2023-08-06T04:25:56;100278.06;;;10.65;100.00
73624;BME280;61921;53.226;-1.296;2023-08-06T04:28:19;100279.03;;;10.36;100.00
73624;BME280;61921;53.226;-1.296;2023-08-06T04:30:45;100276.11;;;10.23;100.00
73624;BME280;61921;53.226;-1.296;2023-08-06T04:33:10;100276.43;;;10.32;100.00
73624;BME280;61921;53.226;-1.296;2023-08-06T04:35:40;100276.97;;;10.37;100.00
73624;BME280;61921;53.226;-1.296;2023-08-06T04:38:01;100281.57;;;10.45;100.00
73624;BME280;61921;53.226;-1.296;2023-08-06T04:40:26;100280.77;;;10.52;100.00
73624;BME280;61921;53.226;-1.296;2023-08-06T04:42:52;100276.23;;;10.41;100.00
73624;BME280;61921;53.226;-1.296;2023-08-06T04:45:17;100275.78;;;10.62;100.00
73624;BME280;61921;53.226;-1.296;2023-08-06T04:47:43;100282.96;;;10.65;100.00
73624;BME280;61921;53.226;-1.296;2023-08-06T04:50:08;100284.12;;;10.64;100.00
73624;BME280;61921;53.226;-1.296;2023-08-06T04:52:33;100287.95;;;10.67;100.00
73624;BME280;61921;53.226;-1.296;2023-08-06T04:54:58;100290.06;;;10.78;100.00
73624;BME280;61921;53.226;-1.296;2023-08-06T04:57:24;100288.66;;;10.89;100.00
73624;BME280;61921;53.226;-1.296;2023-08-06T04:59:50;100292.18;;;11.03;100.00
73624;BME280;61921;53.226;-1.296;2023-08-06T05:02:15;100293.22;;;11.08;100.00
73624;BME280;61921;53.226;-1.296;2023-08-06T05:04:40;100293.54;;;11.26;100.00
73624;BME280;61921;53.226;-1.296;2023-08-06T05:07:06;100296.24;;;11.18;100.00
73624;BME280;61921;53.226;-1.296;2023-08-06T05:09:31;100299.38;;;11.30;100.00
73624;BME280;61921;53.226;-1.296;2023-08-06T05:11:56;100296.26;;;11.53;100.00
73624;BME280;61921;53.226;-1.296;2023-08-06T05:14:21;100300.16;;;11.51;100.00
73624;BME280;61921;53.226;-1.296;2023-08-06T05:16:47;100300.63;;;11.60;100.00
73624;BME280;61921;53.226;-1.296;2023-08-06T05:19:12;100306.63;;;11.75;100.00
73624;BME280;61921;53.226;-1.296;2023-08-06T05:21:38;100307.76;;;11.79;100.00
73624;BME280;61921;53.226;-1.296;2023-08-06T05:24:04;100309.91;;;11.75;100.00
73624;BME280;61921;53.226;-1.296;2023-08-06T05:26:29;100306.38;;;11.96;100.00
73624;BME280;61921;53.226;-1.296;2023-08-06T05:28:55;100309.98;;;12.04;100.00
73624;BME280;61921;53.226;-1.296;2023-08-06T05:31:19;100312.73;;;11.89;99.51
73624;BME280;61921;53.226;-1.296;2023-08-06T05:33:44;100318.72;;;12.00;100.00
73624;BME280;61921;53.226;-1.296;2023-08-06T05:36:10;100318.88;;;12.23;100.00
73624;BME280;61921;53.226;-1.296;2023-08-06T05:38:36;100321.63;;;12.32;100.00
73624;BME280;61921;53.226;-1.296;2023-08-06T05:41:01;100325.39;;;12.33;99.89
73624;BME280;61921;53.226;-1.296;2023-08-06T05:43:26;100327.22;;;12.54;100.00
73624;BME280;61921;53.226;-1.296;2023-08-06T05:45:51;100330.58;;;12.61;99.95
73624;BME280;61921;53.226;-1.296;2023-08-06T05:48:17;100332.14;;;12.59;99.63
73624;BME280;61921;53.226;-1.296;2023-08-06T05:50:43;100332.55;;;12.71;99.79
73624;BME280;61921;53.226;-1.296;2023-08-06T05:53:07;100336.22;;;12.74;100.00
73624;BME280;61921;53.226;-1.296;2023-08-06T05:55:33;100339.69;;;12.78;99.57
73624;BME280;61921;53.226;-1.296;2023-08-06T05:57:58;100341.40;;;12.71;99.03
73624;BME280;61921;53.226;-1.296;2023-08-06T06:00:24;100342.13;;;12.75;98.93
73624;BME280;61921;53.226;-1.296;2023-08-06T06:02:48;100346.81;;;12.54;99.50
73624;BME280;61921;53.226;-1.296;2023-08-06T06:05:15;100349.51;;;12.53;99.03
73624;BME280;61921;53.226;-1.296;2023-08-06T06:07:39;100353.52;;;12.71;99.64
73624;BME280;61921;53.226;-1.296;2023-08-06T06:10:06;100354.49;;;12.98;98.20
73624;BME280;61921;53.226;-1.296;2023-08-06T06:12:31;100356.74;;;12.97;96.57
73624;BME280;61921;53.226;-1.296;2023-08-06T06:14:55;100358.76;;;13.05;97.84
73624;BME280;61921;53.226;-1.296;2023-08-06T06:17:21;100363.85;;;13.17;97.03
73624;BME280;61921;53.226;-1.296;2023-08-06T06:19:46;100365.34;;;13.34;96.37
73624;BME280;61921;53.226;-1.296;2023-08-06T06:22:12;100368.65;;;13.22;96.43
73624;BME280;61921;53.226;-1.296;2023-08-06T06:24:36;100368.34;;;13.36;95.91
73624;BME280;61921;53.226;-1.296;2023-08-06T06:27:02;100370.79;;;13.30;95.89
73624;BME280;61921;53.226;-1.296;2023-08-06T06:29:27;100372.67;;;13.31;95.58
73624;BME280;61921;53.226;-1.296;2023-08-06T06:31:52;100370.07;;;13.38;95.85
73624;BME280;61921;53.226;-1.296;2023-08-06T06:34:17;100371.55;;;13.57;95.10
73624;BME280;61921;53.226;-1.296;2023-08-06T06:36:43;100373.77;;;13.55;94.93
73624;BME280;61921;53.226;-1.296;2023-08-06T06:39:08;100375.11;;;13.47;93.85
73624;BME280;61921;53.226;-1.296;2023-08-06T06:41:34;100374.06;;;13.51;93.29
73624;BME280;61921;53.226;-1.296;2023-08-06T06:43:59;100373.17;;;13.43;94.21
73624;BME280;61921;53.226;-1.296;2023-08-06T06:46:24;100376.86;;;13.51;94.88
73624;BME280;61921;53.226;-1.296;2023-08-06T06:48:49;100379.62;;;13.59;95.57
73624;BME280;61921;53.226;-1.296;2023-08-06T06:51:15;100379.25;;;13.52;93.83
73624;BME280;61921;53.226;-1.296;2023-08-06T06:53:40;100379.42;;;13.48;92.25
73624;BME280;61921;53.226;-1.296;2023-08-06T06:56:05;100383.15;;;13.32;91.26
73624;BME280;61921;53.226;-1.296;2023-08-06T06:58:30;100385.98;;;13.34;90.22
73624;BME280;61921;53.226;-1.296;2023-08-06T07:00:56;100391.75;;;13.25;90.72
73624;BME280;61921;53.226;-1.296;2023-08-06T07:03:21;100388.44;;;13.30;89.71
73624;BME280;61921;53.226;-1.296;2023-08-06T07:05:47;100396.99;;;13.35;90.45
73624;BME280;61921;53.226;-1.296;2023-08-06T07:08:12;100395.53;;;13.49;90.47
73624;BME280;61921;53.226;-1.296;2023-08-06T07:10:37;100392.43;;;13.51;87.57
73624;BME280;61921;53.226;-1.296;2023-08-06T07:13:03;100391.45;;;13.63;88.37
73624;BME280;61921;53.226;-1.296;2023-08-06T07:15:28;100391.09;;;13.67;86.75
73624;BME280;61921;53.226;-1.296;2023-08-06T07:17:53;100389.60;;;13.65;87.26
73624;BME280;61921;53.226;-1.296;2023-08-06T07:20:18;100390.12;;;13.71;87.58
73624;BME280;61921;53.226;-1.296;2023-08-06T07:22:44;100397.16;;;13.68;87.13
73624;BME280;61921;53.226;-1.296;2023-08-06T07:25:09;100395.33;;;13.80;85.95
73624;BME280;61921;53.226;-1.296;2023-08-06T07:27:34;100395.60;;;13.80;85.44
73624;BME280;61921;53.226;-1.296;2023-08-06T07:29:59;100394.10;;;13.86;85.11
73624;BME280;61921;53.226;-1.296;2023-08-06T07:32:25;100397.28;;;13.99;84.74
73624;BME280;61921;53.226;-1.296;2023-08-06T07:34:50;100399.93;;;14.18;84.92
73624;BME280;61921;53.226;-1.296;2023-08-06T07:37:15;100398.24;;;14.36;83.11
73624;BME280;61921;53.226;-1.296;2023-08-06T07:39:41;100403.36;;;14.38;80.54
73624;BME280;61921;53.226;-1.296;2023-08-06T07:42:06;100400.60;;;14.53;80.63
73624;BME280;61921;53.226;-1.296;2023-08-06T07:44:31;100408.42;;;14.60;81.09
73624;BME280;61921;53.226;-1.296;2023-08-06T07:46:56;100410.81;;;14.76;81.10
73624;BME280;61921;53.226;-1.296;2023-08-06T07:49:22;100413.22;;;14.55;77.75
73624;BME280;61921;53.226;-1.296;2023-08-06T07:51:48;100415.24;;;14.42;79.13
73624;BME280;61921;53.226;-1.296;2023-08-06T07:54:13;100416.93;;;14.77;79.16
73624;BME280;61921;53.226;-1.296;2023-08-06T07:56:37;100418.99;;;15.09;77.84
73624;BME280;61921;53.226;-1.296;2023-08-06T07:59:03;100419.85;;;15.05;77.05
73624;BME280;61921;53.226;-1.296;2023-08-06T08:01:28;100424.96;;;15.24;77.34
73624;BME280;61921;53.226;-1.296;2023-08-06T08:03:55;100427.51;;;15.18;75.46
73624;BME280;61921;53.226;-1.296;2023-08-06T08:06:19;100426.77;;;15.17;74.49
73624;BME280;61921;53.226;-1.296;2023-08-06T08:08:43;100430.18;;;15.02;76.03
73624;BME280;61921;53.226;-1.296;2023-08-06T08:11:10;100432.11;;;14.93;77.23
73624;BME280;61921;53.226;-1.296;2023-08-06T08:13:35;100437.55;;;15.04;78.76
73624;BME280;61921;53.226;-1.296;2023-08-06T08:16:01;100441.12;;;15.22;79.00
73624;BME280;61921;53.226;-1.296;2023-08-06T08:18:26;100445.61;;;15.30;76.17
73624;BME280;61921;53.226;-1.296;2023-08-06T08:20:50;100446.08;;;15.47;76.52
73624;BME280;61921;53.226;-1.296;2023-08-06T08:23:17;100444.68;;;15.45;75.16
73624;BME280;61921;53.226;-1.296;2023-08-06T08:25:41;100445.13;;;15.74;74.78
73624;BME280;61921;53.226;-1.296;2023-08-06T08:28:08;100449.72;;;16.07;74.22
73624;BME280;61921;53.226;-1.296;2023-08-06T08:30:32;100448.14;;;15.80;74.72
73624;BME280;61921;53.226;-1.296;2023-08-06T08:32:57;100443.39;;;15.65;72.32
73624;BME280;61921;53.226;-1.296;2023-08-06T08:35:22;100443.51;;;15.42;73.88
73624;BME280;61921;53.226;-1.296;2023-08-06T08:37:48;100442.19;;;15.61;72.99
73624;BME280;61921;53.226;-1.296;2023-08-06T08:40:13;100440.78;;;15.59;76.14
73624;BME280;61921;53.226;-1.296;2023-08-06T08:42:38;100438.82;;;15.64;73.97
73624;BME280;61921;53.226;-1.296;2023-08-06T08:45:05;100438.59;;;15.63;72.96
73624;BME280;61921;53.226;-1.296;2023-08-06T08:47:29;100437.13;;;15.86;72.17
73624;BME280;61921;53.226;-1.296;2023-08-06T08:49:54;100438.85;;;15.97;72.92
73624;BME280;61921;53.226;-1.296;2023-08-06T08:52:19;100440.33;;;16.34;72.93
73624;BME280;61921;53.226;-1.296;2023-08-06T08:54:45;100443.53;;;16.26;69.59
73624;BME280;61921;53.226;-1.296;2023-08-06T08:57:09;100450.07;;;16.56;70.64
73624;BME280;61921;53.226;-1.296;2023-08-06T08:59:35;100452.43;;;16.60;68.02
73624;BME280;61921;53.226;-1.296;2023-08-06T09:02:00;100452.38;;;16.41;69.75
73624;BME280;61921;53.226;-1.296;2023-08-06T09:04:24;100455.03;;;16.13;68.14
73624;BME280;61921;53.226;-1.296;2023-08-06T09:06:50;100456.83;;;15.91;70.86
73624;BME280;61921;53.226;-1.296;2023-08-06T09:09:20;100455.79;;;16.15;69.90
73624;BME280;61921;53.226;-1.296;2023-08-06T09:11:44;100453.28;;;16.18;69.38
73624;BME280;61921;53.226;-1.296;2023-08-06T09:14:06;100455.69;;;16.31;70.08
73624;BME280;61921;53.226;-1.296;2023-08-06T09:16:30;100455.44;;;16.32;68.54
73624;BME280;61921;53.226;-1.296;2023-08-06T09:18:58;100462.27;;;16.44;67.61
73624;BME280;61921;53.226;-1.296;2023-08-06T09:21:21;100454.97;;;16.21;67.75
73624;BME280;61921;53.226;-1.296;2023-08-06T09:23:46;100460.66;;;16.46;68.61
73624;BME280;61921;53.226;-1.296;2023-08-06T09:26:13;100462.39;;;16.88;67.15
73624;BME280;61921;53.226;-1.296;2023-08-06T09:28:37;100459.61;;;16.79;66.58
73624;BME280;61921;53.226;-1.296;2023-08-06T09:31:01;100465.18;;;16.98;66.08
73624;BME280;61921;53.226;-1.296;2023-08-06T09:33:29;100474.14;;;17.01;64.26
73624;BME280;61921;53.226;-1.296;2023-08-06T09:35:52;100478.45;;;16.74;66.16
73624;BME280;61921;53.226;-1.296;2023-08-06T09:38:17;100474.52;;;16.97;65.04
73624;BME280;61921;53.226;-1.296;2023-08-06T09:40:42;100479.71;;;17.17;67.04
73624;BME280;61921;53.226;-1.296;2023-08-06T09:43:07;100477.41;;;17.26;66.86
73624;BME280;61921;53.226;-1.296;2023-08-06T09:45:34;100480.41;;;17.23;65.29
73624;BME280;61921;53.226;-1.296;2023-08-06T09:47:58;100485.09;;;17.58;64.73
73624;BME280;61921;53.226;-1.296;2023-08-06T09:50:23;100482.80;;;17.91;64.69
73624;BME280;61921;53.226;-1.296;2023-08-06T09:52:48;100483.30;;;17.48;62.60
73624;BME280;61921;53.226;-1.296;2023-08-06T09:55:14;100481.39;;;17.83;62.69
73624;BME280;61921;53.226;-1.296;2023-08-06T09:57:39;100485.86;;;17.98;63.37
73624;BME280;61921;53.226;-1.296;2023-08-06T10:00:04;100487.67;;;17.74;60.05
73624;BME280;61921;53.226;-1.296;2023-08-06T10:02:29;100490.16;;;17.46;61.28
73624;BME280;61921;53.226;-1.296;2023-08-06T10:04:55;100481.80;;;18.36;62.86
73624;BME280;61921;53.226;-1.296;2023-08-06T10:07:19;100492.85;;;18.30;61.73
73624;BME280;61921;53.226;-1.296;2023-08-06T10:09:44;100485.13;;;18.18;60.23
73624;BME280;61921;53.226;-1.296;2023-08-06T10:12:09;100490.57;;;18.00;59.58
73624;BME280;61921;53.226;-1.296;2023-08-06T10:14:37;100492.17;;;18.17;61.37
73624;BME280;61921;53.226;-1.296;2023-08-06T10:17:00;100490.53;;;18.29;61.13
73624;BME280;61921;53.226;-1.296;2023-08-06T10:19:25;100492.79;;;18.20;59.89
73624;BME280;61921;53.226;-1.296;2023-08-06T10:22:10;100493.52;;;18.03;59.48
73624;BME280;61921;53.226;-1.296;2023-08-06T10:24:15;100490.84;;;18.18;58.31
73624;BME280;61921;53.226;-1.296;2023-08-06T10:26:40;100497.90;;;18.20;60.67
73624;BME280;61921;53.226;-1.296;2023-08-06T10:33:55;100501.29;;;18.47;59.64
73624;BME280;61921;53.226;-1.296;2023-08-06T10:36:21;100497.98;;;18.31;58.68
73624;BME280;61921;53.226;-1.296;2023-08-06T10:38:47;100495.29;;;18.50;58.04
73624;BME280;61921;53.226;-1.296;2023-08-06T10:41:16;100492.97;;;18.87;58.45
73624;BME280;61921;53.226;-1.296;2023-08-06T10:43:37;100493.46;;;18.87;55.07
73624;BME280;61921;53.226;-1.296;2023-08-06T10:46:03;100493.91;;;18.65;56.70
73624;BME280;61921;53.226;-1.296;2023-08-06T10:48:32;100490.53;;;18.75;55.92
73624;BME280;61921;53.226;-1.296;2023-08-06T10:50:52;100491.36;;;18.82;57.04
73624;BME280;61921;53.226;-1.296;2023-08-06T10:53:17;100490.68;;;18.63;56.82
73624;BME280;61921;53.226;-1.296;2023-08-06T10:55:42;100497.24;;;18.47;55.81
73624;BME280;61921;53.226;-1.296;2023-08-06T10:58:07;100496.41;;;18.77;57.17
73624;BME280;61921;53.226;-1.296;2023-08-06T11:00:33;100496.09;;;18.86;55.47
73624;BME280;61921;53.226;-1.296;2023-08-06T11:02:57;100496.07;;;18.77;54.29
73624;BME280;61921;53.226;-1.296;2023-08-06T11:05:22;100492.23;;;18.99;54.98
73624;BME280;61921;53.226;-1.296;2023-08-06T11:07:48;100496.71;;;19.18;55.71
73624;BME280;61921;53.226;-1.296;2023-08-06T11:10:13;100492.88;;;19.01;55.00
73624;BME280;61921;53.226;-1.296;2023-08-06T11:12:38;100497.68;;;19.51;55.05
73624;BME280;61921;53.226;-1.296;2023-08-06T11:15:04;100498.02;;;19.48;53.65
73624;BME280;61921;53.226;-1.296;2023-08-06T11:17:29;100498.24;;;19.60;53.76
73624;BME280;61921;53.226;-1.296;2023-08-06T11:19:54;100494.58;;;19.34;52.53
73624;BME280;61921;53.226;-1.296;2023-08-06T11:22:19;100497.83;;;19.32;54.35
73624;BME280;61921;53.226;-1.296;2023-08-06T11:24:44;100498.15;;;18.96;55.95
73624;BME280;61921;53.226;-1.296;2023-08-06T11:27:12;100497.45;;;19.50;55.20
73624;BME280;61921;53.226;-1.296;2023-08-06T11:29:37;100498.84;;;20.29;53.83
73624;BME280;61921;53.226;-1.296;2023-08-06T11:32:04;100494.27;;;19.88;52.38
73624;BME280;61921;53.226;-1.296;2023-08-06T11:34:24;100496.76;;;19.20;53.48
73624;BME280;61921;53.226;-1.296;2023-08-06T11:36:50;100500.08;;;19.78;51.38
73624;BME280;61921;53.226;-1.296;2023-08-06T11:39:15;100500.26;;;20.06;52.14
73624;BME280;61921;53.226;-1.296;2023-08-06T11:41:40;100496.45;;;20.77;48.63
73624;BME280;61921;53.226;-1.296;2023-08-06T11:44:05;100492.19;;;19.82;50.58
73624;BME280;61921;53.226;-1.296;2023-08-06T11:48:56;100482.62;;;20.30;50.50
73624;BME280;61921;53.226;-1.296;2023-08-06T11:51:23;100486.93;;;19.93;52.48
73624;BME280;61921;53.226;-1.296;2023-08-06T11:53:48;100486.41;;;19.80;51.56
73624;BME280;61921;53.226;-1.296;2023-08-06T11:56:10;100488.12;;;19.96;51.25
73624;BME280;61921;53.226;-1.296;2023-08-06T11:58:37;100483.94;;;19.97;49.96
73624;BME280;61921;53.226;-1.296;2023-08-06T12:01:00;100488.32;;;20.04;49.01
73624;BME280;61921;53.226;-1.296;2023-08-06T12:03:26;100489.02;;;20.31;49.75
73624;BME280;61921;53.226;-1.296;2023-08-06T12:05:54;100489.50;;;20.64;49.13
73624;BME280;61921;53.226;-1.296;2023-08-06T12:08:16;100486.50;;;20.48;49.83
73624;BME280;61921;53.226;-1.296;2023-08-06T12:10:41;100486.66;;;20.03;49.57
73624;BME280;61921;53.226;-1.296;2023-08-06T12:13:06;100488.59;;;20.93;48.30
73624;BME280;61921;53.226;-1.296;2023-08-06T12:15:32;100484.84;;;20.32;48.27
73624;BME280;61921;53.226;-1.296;2023-08-06T12:17:57;100488.59;;;20.85;48.50
73624;BME280;61921;53.226;-1.296;2023-08-06T12:20:22;100485.10;;;20.48;48.83
73624;BME280;61921;53.226;-1.296;2023-08-06T12:22:48;100488.59;;;20.08;47.91
73624;BME280;61921;53.226;-1.296;2023-08-06T12:25:12;100485.11;;;20.40;48.63
73624;BME280;61921;53.226;-1.296;2023-08-06T12:27:38;100491.43;;;20.98;47.39
73624;BME280;61921;53.226;-1.296;2023-08-06T12:30:04;100488.59;;;20.21;47.77
73624;BME280;61921;53.226;-1.296;2023-08-06T12:32:27;100493.34;;;20.41;48.62